Time;durP1;ratioP1;P1;durP2;ratioP2;P2;SDS_P1;SDS_P2;PMS_P1;PMS_P2;Temp;Humidity;BMP_temperature;BMP_pressure;BME280_temperature;BME280_humidity;BME280_pressure;Samples;Min_cycle;Max_cycle;Signal;HPM_P1;HPM_P2
2022/07/09 00:02:01;;;;;;;;;;;;;;;-144.99;100.00;52338.03;4967717;28;19970;-71
2022/07/09 00:04:28;;;;;;;;;;;;;;;-144.99;100.00;52329.88;4968642;28;20016;-72
2022/07/09 00:06:54;;;;;;;;;;;;;;;-144.99;100.00;52360.44;4971149;28;20025;-71
2022/07/09 00:09:20;;;;;;;;;;;;;;;-144.99;100.00;52331.91;4970235;28;20002;-73
2022/07/09 00:11:47;;;;;;;;;;;;;;;-144.99;100.00;52323.75;4969725;28;20008;-72
2022/07/09 00:14:13;;;;;;;;;;;;;;;-144.99;100.00;52305.41;4973644;28;20296;-72
2022/07/09 00:16:40;;;;;;;;;;;;;;;-144.99;100.00;52301.34;4969785;28;20377;-74
2022/07/09 00:19:08;;;;;;;;;;;;;;;-144.99;100.00;52289.13;4972712;28;20014;-73
2022/07/09 00:21:34;;;;;;;;;;;;;;;-144.99;100.00;52333.94;4993218;28;20283;-72
2022/07/09 00:24:00;;;;;;;;;;;;;;;-144.99;100.00;52352.28;4987422;28;19926;-73
2022/07/09 00:26:27;;;;;;;;;;;;;;;-144.99;100.00;52331.91;4967875;28;19988;-74
2022/07/09 00:28:53;;;;;;;;;;;;;;;-144.99;100.00;52329.88;4971704;28;20017;-73
2022/07/09 00:31:20;;;;;;;;;;;;;;;-144.99;100.00;52329.88;4965938;28;20012;-74
2022/07/09 00:33:46;;;;;;;;;;;;;;;-144.99;100.00;52315.59;4971134;28;20329;-73
2022/07/09 00:36:14;;;;;;;;;;;;;;;-144.99;100.00;52325.81;4977448;28;20025;-73
2022/07/09 00:38:41;;;;;;;;;;;;;;;-144.99;100.00;52338.03;4974232;28;19932;-72
2022/07/09 00:41:07;;;;;;;;;;;;;;;-144.99;100.00;52329.88;4972370;28;19996;-72
2022/07/09 00:43:33;;;;;;;;;;;;;;;-144.99;100.00;52342.09;4971217;28;20044;-72
2022/07/09 00:46:00;;;;;;;;;;;;;;;-144.99;100.00;52350.25;4971873;28;19932;-71
2022/07/09 00:48:26;;;;;;;;;;;;;;;-144.99;100.00;52297.25;4973561;28;19948;-72
2022/07/09 00:50:54;;;;;;;;;;;;;;;-144.99;100.00;52321.72;4970734;28;20366;-71
2022/07/09 00:53:24;;;;;;;;;;;;;;;-144.99;100.00;52333.94;4970696;28;19930;-71
2022/07/09 00:55:51;;;;;;;;;;;;;;;-144.99;100.00;52356.38;4971420;28;20209;-70
2022/07/09 00:58:18;;;;;;;;;;;;;;;-144.99;100.00;52382.88;4972921;28;19957;-73
2022/07/09 01:00:45;;;;;;;;;;;;;;;-144.99;100.00;52333.94;4969149;28;19926;-73
2022/07/09 01:03:12;;;;;;;;;;;;;;;-144.99;100.00;52346.19;4968783;28;20497;-75
2022/07/09 01:05:38;;;;;;;;;;;;;;;-144.99;100.00;52366.56;4969208;28;19948;-74
2022/07/09 01:08:05;;;;;;;;;;;;;;;-144.99;100.00;52317.66;4969839;28;19927;-75
2022/07/09 01:10:34;;;;;;;;;;;;;;;-144.99;100.00;52321.72;4962800;28;19926;-74
2022/07/09 01:13:02;;;;;;;;;;;;;;;-144.99;100.00;52342.09;4972303;28;20333;-74
2022/07/09 01:15:28;;;;;;;;;;;;;;;-144.99;100.00;52321.72;4969327;28;19987;-74
2022/07/09 01:17:57;;;;;;;;;;;;;;;-144.99;100.00;52366.56;4971141;28;19932;-74
2022/07/09 01:20:25;;;;;;;;;;;;;;;-144.99;100.00;52313.56;4969483;28;19960;-73
2022/07/09 01:22:52;;;;;;;;;;;;;;;-144.99;100.00;52354.34;4968984;28;19969;-74
2022/07/09 01:25:18;;;;;;;;;;;;;;;-144.99;100.00;52354.34;4971465;28;20001;-74
2022/07/09 01:27:45;;;;;;;;;;;;;;;-144.99;100.00;52350.25;4968718;28;19948;-73
2022/07/09 01:30:12;;;;;;;;;;;;;;;-144.99;100.00;52342.09;4967648;28;20374;-72
2022/07/09 01:32:38;;;;;;;;;;;;;;;-144.99;100.00;52333.94;4968281;28;20393;-72
2022/07/09 01:35:06;;;;;;;;;;;;;;;-144.99;100.00;52340.06;4969511;28;20009;-73
2022/07/09 01:37:33;;;;;;;;;;;;;;;-144.99;100.00;52358.41;4968646;28;19926;-73
2022/07/09 01:40:00;;;;;;;;;;;;;;;-144.99;100.00;52338.03;4969029;28;20009;-72
2022/07/09 01:42:26;;;;;;;;;;;;;;;-144.99;100.00;52321.72;4968183;28;19934;-72
2022/07/09 01:44:53;;;;;;;;;;;;;;;-144.99;100.00;52301.34;4968580;28;20361;-72
2022/07/09 01:47:19;;;;;;;;;;;;;;;-144.99;100.00;52338.03;4971247;28;20367;-73
2022/07/09 01:49:45;;;;;;;;;;;;;;;-144.99;100.00;52325.81;4968374;28;19965;-72
2022/07/09 01:52:12;;;;;;;;;;;;;;;-144.99;100.00;52358.41;4965640;28;19926;-72
2022/07/09 01:54:40;;;;;;;;;;;;;;;-144.99;100.00;52354.34;4968963;28;19926;-75
2022/07/09 01:57:06;;;;;;;;;;;;;;;-144.99;100.00;52313.56;4970842;28;20409;-75
2022/07/09 01:59:32;;;;;;;;;;;;;;;-144.99;100.00;52325.81;4967932;28;19973;-74
2022/07/09 02:01:59;;;;;;;;;;;;;;;-144.99;100.00;52305.41;4968684;28;19940;-74
2022/07/09 02:04:25;;;;;;;;;;;;;;;-144.99;100.00;52301.34;4968595;28;19969;-74
2022/07/09 02:06:52;;;;;;;;;;;;;;;-144.99;100.00;52319.69;5004361;28;20002;-75
2022/07/09 02:09:18;;;;;;;;;;;;;;;-144.99;100.00;52325.81;4968385;28;19926;-75
2022/07/09 02:11:47;;;;;;;;;;;;;;;-144.99;100.00;52354.34;4967670;28;19926;-74
2022/07/09 02:14:13;;;;;;;;;;;;;;;-144.99;100.00;52305.41;4968284;28;19930;-74
2022/07/09 02:16:39;;;;;;;;;;;;;;;-144.99;100.00;52368.59;4969573;28;19930;-74
2022/07/09 02:19:07;;;;;;;;;;;;;;;-144.99;100.00;52305.41;4970689;28;20020;-74
2022/07/09 02:21:33;;;;;;;;;;;;;;;-144.99;100.00;52370.63;4969211;28;19926;-75
2022/07/09 02:24:00;;;;;;;;;;;;;;;-144.99;100.00;52350.25;4971713;28;20029;-74
2022/07/09 02:26:27;;;;;;;;;;;;;;;-144.99;100.00;52325.81;4965963;28;20021;-74
2022/07/09 02:28:55;;;;;;;;;;;;;;;-144.99;100.00;52329.88;4969186;28;20354;-71
2022/07/09 02:31:21;;;;;;;;;;;;;;;-144.99;100.00;52342.09;4964508;28;19934;-72
2022/07/09 02:33:48;;;;;;;;;;;;;;;-144.99;100.00;52289.13;4967584;28;20017;-73
2022/07/09 02:36:14;;;;;;;;;;;;;;;-144.99;100.00;52329.88;4967881;28;19926;-72
2022/07/09 02:38:40;;;;;;;;;;;;;;;-144.99;100.00;52333.94;4972038;28;20013;-72
2022/07/09 02:41:07;;;;;;;;;;;;;;;-144.99;100.00;52329.88;4967270;28;20100;-72
2022/07/09 02:43:33;;;;;;;;;;;;;;;-144.99;100.00;52315.59;4967428;28;20437;-72
2022/07/09 02:46:01;;;;;;;;;;;;;;;-144.99;100.00;52350.25;4970942;28;20008;-73
2022/07/09 02:48:27;;;;;;;;;;;;;;;-144.99;100.00;52329.88;4964399;28;20025;-73
2022/07/09 02:50:54;;;;;;;;;;;;;;;-144.99;100.00;52321.72;4989402;28;20400;-72
2022/07/09 02:53:21;;;;;;;;;;;;;;;-144.99;100.00;52317.66;4971286;28;19926;-72
2022/07/09 02:55:47;;;;;;;;;;;;;;;-144.99;100.00;52354.34;4970280;28;20337;-72
2022/07/09 02:58:14;;;;;;;;;;;;;;;-144.99;100.00;52329.88;4969494;28;20021;-75
2022/07/09 03:00:41;;;;;;;;;;;;;;;-144.99;100.00;52321.72;4968944;28;20005;-71
2022/07/09 03:03:09;;;;;;;;;;;;;;;-144.99;100.00;52350.25;4968591;28;19930;-73
2022/07/09 03:05:35;;;;;;;;;;;;;;;-144.99;100.00;52333.94;4967583;28;19945;-72
2022/07/09 03:08:02;;;;;;;;;;;;;;;-144.99;100.00;52329.88;4968891;28;19932;-74
2022/07/09 03:10:29;;;;;;;;;;;;;;;-144.99;100.00;52301.34;4962384;28;20327;-73
2022/07/09 03:12:56;;;;;;;;;;;;;;;-144.99;100.00;52321.72;4971935;28;20269;-73
2022/07/09 03:15:22;;;;;;;;;;;;;;;-144.99;100.00;52309.50;4974771;28;19942;-73
2022/07/09 03:17:49;;;;;;;;;;;;;;;-144.99;100.00;52295.22;4977659;28;19954;-75
2022/07/09 03:20:16;;;;;;;;;;;;;;;-144.99;100.00;52301.34;4982806;28;20002;-72
2022/07/09 03:22:43;;;;;;;;;;;;;;;-144.99;100.00;52325.81;4981479;28;19926;-72
2022/07/09 03:25:09;;;;;;;;;;;;;;;-144.99;100.00;52317.66;4973246;28;20159;-73
2022/07/09 03:27:36;;;;;;;;;;;;;;;-144.99;100.00;52323.75;4972162;28;20286;-73
2022/07/09 03:30:03;;;;;;;;;;;;;;;-144.99;100.00;52344.16;4969545;28;19937;-73
2022/07/09 03:32:29;;;;;;;;;;;;;;;-144.99;100.00;52333.94;4974193;28;20028;-73
2022/07/09 03:34:56;;;;;;;;;;;;;;;-144.99;100.00;52333.94;4968636;28;19933;-73
2022/07/09 03:37:24;;;;;;;;;;;;;;;-144.99;100.00;52336.00;4966401;28;20126;-72
2022/07/09 03:39:51;;;;;;;;;;;;;;;-144.99;100.00;52295.22;4998638;28;20116;-73
2022/07/09 03:42:17;;;;;;;;;;;;;;;-144.99;100.00;52329.88;4967999;28;19930;-73
2022/07/09 03:44:44;;;;;;;;;;;;;;;-144.99;100.00;52338.03;4967001;28;19988;-75
2022/07/09 03:47:10;;;;;;;;;;;;;;;-144.99;100.00;52301.34;4967698;28;19953;-73
2022/07/09 03:49:36;;;;;;;;;;;;;;;-144.99;100.00;52366.56;4961222;28;20022;-74
2022/07/09 03:52:03;;;;;;;;;;;;;;;-144.99;100.00;52321.72;4967137;28;19933;-73
2022/07/09 03:54:31;;;;;;;;;;;;;;;-144.99;100.00;52305.41;4970922;28;20385;-73
2022/07/09 03:56:57;;;;;;;;;;;;;;;-144.99;100.00;52329.88;4970484;28;19926;-75
2022/07/09 03:59:24;;;;;;;;;;;;;;;-144.99;100.00;52362.50;4970614;28;20009;-72
2022/07/09 04:01:50;;;;;;;;;;;;;;;-144.99;100.00;52293.19;4968731;28;19930;-72
2022/07/09 04:04:17;;;;;;;;;;;;;;;-144.99;100.00;52338.03;4972985;28;19992;-72
2022/07/09 04:06:43;;;;;;;;;;;;;;;-144.99;100.00;52317.66;4983137;28;20230;-72
2022/07/09 04:09:09;;;;;;;;;;;;;;;-144.99;100.00;52329.88;4975576;28;20040;-72
2022/07/09 04:11:37;;;;;;;;;;;;;;;-144.99;100.00;52338.03;4974147;28;19980;-72
2022/07/09 04:14:04;;;;;;;;;;;;;;;-144.99;100.00;52323.75;4974782;28;19933;-73
2022/07/09 04:16:30;;;;;;;;;;;;;;;-144.99;100.00;52325.81;4975649;28;19956;-73
2022/07/09 04:18:56;;;;;;;;;;;;;;;-144.99;100.00;52317.66;4975303;28;19932;-73
2022/07/09 04:21:23;;;;;;;;;;;;;;;-144.99;100.00;52323.75;4974752;28;20009;-72
2022/07/09 04:23:49;;;;;;;;;;;;;;;-144.99;100.00;52313.56;4974613;28;20428;-73
2022/07/09 04:26:16;;;;;;;;;;;;;;;-144.99;100.00;52321.72;4968412;28;19948;-73
2022/07/09 04:28:44;;;;;;;;;;;;;;;-144.99;100.00;52301.34;4975026;28;20025;-72
2022/07/09 04:31:10;;;;;;;;;;;;;;;-144.99;100.00;52370.63;4979367;28;19926;-74
2022/07/09 04:33:36;;;;;;;;;;;;;;;-144.99;100.00;52317.66;4969589;28;20028;-72
2022/07/09 04:36:03;;;;;;;;;;;;;;;-144.99;100.00;52305.41;4970423;28;20154;-73
2022/07/09 04:38:30;;;;;;;;;;;;;;;-144.99;100.00;52299.31;4972706;28;20021;-72
2022/07/09 04:40:57;;;;;;;;;;;;;;;-144.99;100.00;52338.03;4969614;28;19926;-73
2022/07/09 04:43:24;;;;;;;;;;;;;;;-144.99;100.00;52329.88;4969314;28;19936;-72
2022/07/09 04:45:52;;;;;;;;;;;;;;;-144.99;100.00;52313.56;4972933;28;19930;-73
2022/07/09 04:48:18;;;;;;;;;;;;;;;-144.99;100.00;52325.81;5008158;28;20344;-74
2022/07/09 04:50:45;;;;;;;;;;;;;;;-144.99;100.00;52325.81;4969793;28;20025;-74
2022/07/09 04:53:11;;;;;;;;;;;;;;;-144.99;100.00;52319.69;4970894;28;20432;-73
2022/07/09 04:55:37;;;;;;;;;;;;;;;-144.99;100.00;52321.72;4969394;28;20397;-74
2022/07/09 04:58:04;;;;;;;;;;;;;;;-144.99;100.00;52329.88;4969464;28;19933;-72
2022/07/09 05:00:30;;;;;;;;;;;;;;;-144.99;100.00;52301.34;4969072;28;19926;-71
2022/07/09 05:02:58;;;;;;;;;;;;;;;-144.99;100.00;52313.56;4968766;28;20029;-71
2022/07/09 05:05:25;;;;;;;;;;;;;;;-144.99;100.00;52301.34;4969779;28;20092;-73
2022/07/09 05:07:52;;;;;;;;;;;;;;;-144.99;100.00;52305.41;4972243;28;19927;-73
2022/07/09 05:10:19;;;;;;;;;;;;;;;-144.99;100.00;52317.66;4969261;28;19950;-73
2022/07/09 05:12:45;;;;;;;;;;;;;;;-144.99;100.00;52350.25;4968444;28;20313;-73
2022/07/09 05:15:12;;;;;;;;;;;;;;;-144.99;100.00;52329.88;4968659;28;19926;-72
2022/07/09 05:17:39;;;;;;;;;;;;;;;-144.99;100.00;52309.50;4969137;28;20016;-74
2022/07/09 05:20:08;;;;;;;;;;;;;;;-144.99;100.00;52317.66;4969741;28;19926;-75
2022/07/09 05:22:36;;;;;;;;;;;;;;;-144.99;100.00;52313.56;4973345;28;19926;-74
2022/07/09 05:25:03;;;;;;;;;;;;;;;-144.99;100.00;52303.38;4985348;28;20008;-73
2022/07/09 05:27:29;;;;;;;;;;;;;;;-144.99;100.00;52321.72;4970121;28;19926;-72
2022/07/09 05:29:56;;;;;;;;;;;;;;;-144.99;100.00;52309.50;4968728;28;19926;-72
2022/07/09 05:32:22;;;;;;;;;;;;;;;-144.99;100.00;52327.84;4968350;28;19940;-72
2022/07/09 05:34:49;;;;;;;;;;;;;;;-144.99;100.00;52323.75;4968835;28;20016;-72
2022/07/09 05:37:17;;;;;;;;;;;;;;;-144.99;100.00;52309.50;4970277;28;20018;-71
2022/07/09 05:39:43;;;;;;;;;;;;;;;-144.99;100.00;52313.56;4968563;28;19926;-71
2022/07/09 05:42:10;;;;;;;;;;;;;;;-144.99;100.00;52307.47;4967896;28;20365;-73
2022/07/09 05:44:36;;;;;;;;;;;;;;;-144.99;100.00;52325.81;4972152;28;19979;-71
2022/07/09 05:47:03;;;;;;;;;;;;;;;-144.99;100.00;52293.19;4969996;28;19926;-71
2022/07/09 05:49:29;;;;;;;;;;;;;;;-144.99;100.00;52266.69;4968485;28;19965;-71
2022/07/09 05:51:56;;;;;;;;;;;;;;;-144.99;100.00;52276.88;4968156;28;20276;-71
2022/07/09 05:54:24;;;;;;;;;;;;;;;-144.99;100.00;52309.50;4967852;28;19934;-72
2022/07/09 05:56:51;;;;;;;;;;;;;;;-144.99;100.00;52313.56;5001010;28;20038;-73
2022/07/09 05:59:17;;;;;;;;;;;;;;;-144.99;100.00;52289.13;4969302;28;19926;-73
2022/07/09 06:01:43;;;;;;;;;;;;;;;-144.99;100.00;52336.00;4992367;22;19930;-73
2022/07/09 06:04:10;;;;;;;;;;;;;;;-144.99;100.00;52317.66;4950184;28;20393;-70
2022/07/09 06:06:36;;;;;;;;;;;;;;;-144.99;100.00;52295.22;4954943;28;19941;-72
2022/07/09 06:09:03;;;;;;;;;;;;;;;-144.99;100.00;52297.25;4952650;28;20466;-73
2022/07/09 06:11:31;;;;;;;;;;;;;;;-144.99;100.00;52301.34;4960714;28;20424;-73
2022/07/09 06:13:57;;;;;;;;;;;;;;;-144.99;100.00;52317.66;4959353;28;19958;-72
2022/07/09 06:16:23;;;;;;;;;;;;;;;-144.99;100.00;52307.47;4972824;28;19967;-73
2022/07/09 06:18:50;;;;;;;;;;;;;;;-144.99;100.00;52289.13;4999132;28;20004;-73
2022/07/09 06:21:16;;;;;;;;;;;;;;;-144.99;100.00;52325.81;4967492;28;20025;-73
2022/07/09 06:23:42;;;;;;;;;;;;;;;-144.99;100.00;52301.34;4953463;28;19948;-74
2022/07/09 06:26:09;;;;;;;;;;;;;;;-144.99;100.00;52289.13;4961817;28;19961;-74
2022/07/09 06:28:37;;;;;;;;;;;;;;;-144.99;100.00;52268.72;5004168;28;19934;-73
2022/07/09 06:31:04;;;;;;;;;;;;;;;-144.99;100.00;52289.13;4957002;28;19934;-75
2022/07/09 06:33:31;;;;;;;;;;;;;;;-144.99;100.00;52285.03;4978192;28;19941;-73
2022/07/09 06:35:57;;;;;;;;;;;;;;;-144.99;100.00;52289.13;4959162;28;20457;-74
2022/07/09 06:38:24;;;;;;;;;;;;;;;-144.99;100.00;52287.06;4986898;28;20012;-74
2022/07/09 06:40:50;;;;;;;;;;;;;;;-144.99;100.00;52250.38;4954745;28;20021;-73
2022/07/09 06:43:16;;;;;;;;;;;;;;;-144.99;100.00;52297.25;4956208;28;19930;-72
2022/07/09 06:45:44;;;;;;;;;;;;;;;-144.99;100.00;52268.72;4974222;28;20016;-72
2022/07/09 06:48:11;;;;;;;;;;;;;;;-144.99;100.00;52244.28;4970587;28;19973;-74
2022/07/09 06:50:37;;;;;;;;;;;;;;;-144.99;100.00;52252.44;4959804;28;20025;-71
2022/07/09 06:53:04;;;;;;;;;;;;;;;-144.99;100.00;52272.81;4959193;28;20009;-72
2022/07/09 06:55:30;;;;;;;;;;;;;;;-144.99;100.00;52301.34;4961681;28;20109;-72
2022/07/09 06:57:57;;;;;;;;;;;;;;;-144.99;100.00;52264.66;4966838;28;19957;-72
2022/07/09 07:00:24;;;;;;;;;;;;;;;-144.99;100.00;52307.47;4972574;28;19937;-72
2022/07/09 07:02:52;;;;;;;;;;;;;;;-144.99;100.00;52305.41;4949940;28;19941;-72
2022/07/09 07:05:18;;;;;;;;;;;;;;;-144.99;100.00;52254.47;4954718;28;20296;-73
2022/07/09 07:07:45;;;;;;;;;;;;;;;-144.99;100.00;52266.69;4960347;28;19932;-72
2022/07/09 07:10:11;;;;;;;;;;;;;;;-144.99;100.00;52289.13;4954116;28;19927;-72
2022/07/09 07:12:37;;;;;;;;;;;;;;;-144.99;100.00;52256.50;4982263;28;19926;-72
2022/07/09 07:15:04;;;;;;;;;;;;;;;-144.99;100.00;52264.66;4994815;28;20012;-74
2022/07/09 07:17:32;;;;;;;;;;;;;;;-144.99;100.00;52207.59;4971934;28;20009;-73
2022/07/09 07:20:00;;;;;;;;;;;;;;;-144.99;97.97;52272.81;4968886;28;19926;-74
2022/07/09 07:22:26;;;;;;;;;;;;;;;-144.99;96.18;52244.28;4967786;28;20169;-73
2022/07/09 07:24:53;;;;;;;;;;;;;;;-144.99;96.31;52199.44;4957993;28;19961;-72
2022/07/09 07:27:19;;;;;;;;;;;;;;;-144.99;96.36;52240.19;4972354;28;19949;-74
2022/07/09 07:29:46;;;;;;;;;;;;;;;-144.99;96.56;52244.28;4964273;28;19953;-74
2022/07/09 07:32:12;;;;;;;;;;;;;;;-144.99;97.17;52260.56;4956389;28;20030;-73
2022/07/09 07:34:38;;;;;;;;;;;;;;;-144.99;97.52;52236.13;4962388;28;20101;-73
2022/07/09 07:37:06;;;;;;;;;;;;;;;-144.99;97.87;52258.53;5013686;28;19930;-74
2022/07/09 07:39:33;;;;;;;;;;;;;;;-144.99;98.18;52278.91;4963735;28;20025;-74
2022/07/09 07:41:59;;;;;;;;;;;;;;;-144.99;96.74;52236.13;4964814;28;20017;-74
2022/07/09 07:44:26;;;;;;;;;;;;;;;-144.99;96.89;52264.66;4977942;28;20404;-73
2022/07/09 07:46:52;;;;;;;;;;;;;;;-144.99;95.60;52256.50;5011209;28;19927;-74
2022/07/09 07:49:19;;;;;;;;;;;;;;;-144.99;95.42;52256.50;4968336;28;19962;-73
2022/07/09 07:51:45;;;;;;;;;;;;;;;-144.99;94.88;52244.28;4947639;28;19988;-73
2022/07/09 07:54:13;;;;;;;;;;;;;;;-144.99;93.54;52268.72;4961740;28;20409;-73
2022/07/09 07:56:39;;;;;;;;;;;;;;;-144.99;92.56;52258.53;4958545;28;20340;-73
2022/07/09 07:59:06;;;;;;;;;;;;;;;-144.99;92.39;52244.28;4953330;28;19998;-74
2022/07/09 08:01:32;;;;;;;;;;;;;;;-144.99;90.90;52297.25;4980443;28;19929;-73
2022/07/09 08:03:59;;;;;;;;;;;;;;;-144.99;90.87;52248.34;4960700;28;19997;-74
2022/07/09 08:06:25;;;;;;;;;;;;;;;-144.99;88.99;52268.72;4954889;28;19969;-72
2022/07/09 08:08:52;;;;;;;;;;;;;;;-144.99;88.59;52201.47;4953901;28;19930;-73
2022/07/09 08:11:19;;;;;;;;;;;;;;;-144.99;85.82;52236.13;4957422;28;20292;-74
2022/07/09 08:13:46;;;;;;;;;;;;;;;-144.99;85.12;52252.44;4953411;28;20029;-73
2022/07/09 08:16:12;;;;;;;;;;;;;;;-144.99;81.77;52203.50;4977240;28;19938;-74
2022/07/09 08:18:39;;;;;;;;;;;;;;;-144.99;77.72;52227.97;4956521;28;19946;-73
2022/07/09 08:21:05;;;;;;;;;;;;;;;-144.99;73.32;52207.59;4956044;28;20416;-72
2022/07/09 08:23:50;;;;;;;;;;;;;;;-144.99;72.34;52219.81;4954894;28;20029;-72
2022/07/09 08:26:17;;;;;;;;;;;;;;;-144.99;69.11;52183.13;4954027;28;19931;-75
2022/07/09 08:28:45;;;;;;;;;;;;;;;-144.99;68.98;52185.16;4957741;28;19970;-74
2022/07/09 08:31:11;;;;;;;;;;;;;;;-144.99;66.63;52205.53;4972094;28;20013;-73
2022/07/09 08:33:38;;;;;;;;;;;;;;;-144.99;67.07;52211.66;4980835;28;20016;-74
2022/07/09 08:36:04;;;;;;;;;;;;;;;-144.99;67.34;52203.50;4959992;28;19937;-73
2022/07/09 08:38:31;;;;;;;;;;;;;;;-144.99;67.28;52191.28;4955146;28;19942;-74
2022/07/09 08:40:58;;;;;;;;;;;;;;;-144.99;67.00;52187.19;4956000;28;19977;-73
2022/07/09 08:43:26;;;;;;;;;;;;;;;-144.99;67.16;52162.75;4967141;28;19928;-74
2022/07/09 08:45:54;;;;;;;;;;;;;;;-144.99;65.39;52170.91;4972511;28;19930;-72
2022/07/09 08:48:21;;;;;;;;;;;;;;;-144.99;63.70;52213.69;4961104;28;20338;-73
2022/07/09 08:50:49;;;;;;;;;;;;;;;-144.99;64.44;52203.50;4966427;28;19996;-74
2022/07/09 08:53:17;;;;;;;;;;;;;;;-144.99;65.75;52199.44;4973008;28;20032;-74
2022/07/09 08:55:44;;;;;;;;;;;;;;;-144.99;66.88;52244.28;4971316;28;20022;-72
2022/07/09 08:58:12;;;;;;;;;;;;;;;-144.99;67.08;52195.34;4951969;28;20472;-73
2022/07/09 09:00:40;;;;;;;;;;;;;;;-144.99;65.75;52227.97;4947229;28;20320;-72
2022/07/09 09:03:08;;;;;;;;;;;;;;;-144.99;66.04;52262.63;4957377;28;20393;-72
2022/07/09 09:05:34;;;;;;;;;;;;;;;-144.99;65.05;52207.59;4956525;28;20312;-73
2022/07/09 09:08:01;;;;;;;;;;;;;;;-144.99;63.64;52256.50;4952567;28;20018;-73
2022/07/09 09:10:28;;;;;;;;;;;;;;;-144.99;62.76;52227.97;4961917;28;19968;-73
2022/07/09 09:12:58;;;;;;;;;;;;;;;-144.99;61.98;52219.81;4269069;28;10020749;-73
2022/07/09 09:15:25;;;;;;;;;;;;;;;-144.99;61.05;52174.97;4947424;28;19996;-74
2022/07/09 09:17:51;;;;;;;;;;;;;;;-144.99;60.12;52146.44;4956266;28;20386;-72
2022/07/09 09:20:20;;;;;;;;;;;;;;;-144.99;58.11;52195.34;4997174;28;20006;-74
2022/07/09 09:22:47;;;;;;;;;;;;;;;-144.99;56.13;52177.00;4986233;28;19940;-73
2022/07/09 09:25:18;;;;;;;;;;;;;;;-144.99;55.49;52162.75;4948417;28;20013;-74
2022/07/09 09:27:54;;;;;;;;;;;;;;;-144.99;54.91;52174.97;4973813;28;19930;-74
2022/07/09 09:30:20;;;;;;;;;;;;;;;-144.99;54.45;52183.13;5014632;28;19947;-74
2022/07/09 09:32:54;;;;;;;;;;;;;;;-144.99;54.98;52187.19;5037290;28;19964;-72
2022/07/09 09:35:22;;;;;;;;;;;;;;;-144.99;55.60;52150.53;4984542;28;21236;-73
2022/07/09 09:37:48;;;;;;;;;;;;;;;-144.99;55.24;52150.53;5003534;28;20320;-74
2022/07/09 09:40:15;;;;;;;;;;;;;;;-144.99;55.33;52146.44;4992651;28;20030;-74
2022/07/09 09:42:42;;;;;;;;;;;;;;;-144.99;53.62;52199.44;5015162;28;19979;-73
2022/07/09 09:45:09;;;;;;;;;;;;;;;-144.99;53.65;52158.66;5009455;28;19929;-72
2022/07/09 09:47:36;;;;;;;;;;;;;;;-144.99;53.86;52183.13;5004191;28;19925;-73
2022/07/09 09:50:03;;;;;;;;;;;;;;;-144.99;55.21;52207.59;5021418;28;20019;-75
2022/07/09 09:52:33;;;;;;;;;;;;;;;-144.99;55.87;52170.91;5023676;28;19924;-75
2022/07/09 09:55:01;;;;;;;;;;;;;;;-144.99;56.19;52179.06;4976675;28;19938;-74
2022/07/09 09:57:28;;;;;;;;;;;;;;;-144.99;53.91;52170.91;4972877;28;20389;-72
2022/07/09 09:59:55;;;;;;;;;;;;;;;-144.99;53.94;52199.44;5020969;28;19943;-74
2022/07/09 10:02:22;;;;;;;;;;;;;;;-144.99;53.13;52170.91;5001661;28;20027;-73
2022/07/09 10:04:48;;;;;;;;;;;;;;;-144.99;53.09;52170.91;5001177;28;19976;-73
2022/07/09 10:07:16;;;;;;;;;;;;;;;-144.99;52.64;52179.06;5004344;28;20015;-73
2022/07/09 10:09:54;;;;;;;;;;;;;;;-144.99;52.76;52128.09;5018410;28;20006;-74
2022/07/09 10:12:26;;;;;;;;;;;;;;;-144.99;51.49;52146.44;4983163;28;20022;-73
2022/07/09 10:14:52;;;;;;;;;;;;;;;-144.99;51.36;52117.91;4609517;28;10000693;-73
2022/07/09 10:17:19;;;;;;;;;;;;;;;-144.99;50.70;52183.13;4982773;28;20033;-74
2022/07/09 10:19:52;;;;;;;;;;;;;;;-144.99;51.02;52195.34;5013259;28;20049;-77
2022/07/09 10:22:18;;;;;;;;;;;;;;;-144.99;52.31;52225.94;5014342;28;19934;-75
2022/07/09 10:24:45;;;;;;;;;;;;;;;-144.99;53.86;52219.81;4996092;28;20000;-76
2022/07/09 10:27:13;;;;;;;;;;;;;;;-144.99;54.35;52203.50;5020917;28;19928;-76
2022/07/09 10:29:52;;;;;;;;;;;;;;;-144.99;55.50;52268.72;5017279;28;20027;-75
2022/07/09 10:32:22;;;;;;;;;;;;;;;-144.99;56.38;52248.34;4957473;28;19937;-75
2022/07/09 10:34:55;;;;;;;;;;;;;;;-144.99;56.85;52215.75;4947146;28;20021;-75
2022/07/09 10:37:30;;;;;;;;;;;;;;;-144.99;56.40;52227.97;4961775;28;19946;-78
2022/07/09 10:39:57;;;;;;;;;;;;;;;-144.99;55.95;52264.66;4948053;28;20025;-75
2022/07/09 10:42:24;;;;;;;;;;;;;;;-144.99;55.47;52207.59;4948207;28;20025;-74
2022/07/09 10:44:51;;;;;;;;;;;;;;;-144.99;55.08;52191.28;4949473;28;19930;-77
2022/07/09 10:47:17;;;;;;;;;;;;;;;-144.99;54.39;52189.25;4995754;28;20297;-76
2022/07/09 10:49:44;;;;;;;;;;;;;;;-144.99;53.64;52207.59;4975912;28;19977;-74
2022/07/09 10:52:10;;;;;;;;;;;;;;;-144.99;54.10;52185.16;4964277;28;19966;-75
2022/07/09 10:54:46;;;;;;;;;;;;;;;-144.99;54.03;52187.19;4948714;28;19969;-73
2022/07/09 10:57:13;;;;;;;;;;;;;;;-144.99;51.81;52089.38;4968367;28;19940;-78
2022/07/09 10:59:45;;;;;;;;;;;;;;;-144.99;51.04;52146.44;4991580;28;20021;-74
2022/07/09 11:02:17;;;;;;;;;;;;;;;-144.99;50.40;52168.84;4946269;28;20010;-71
2022/07/09 11:04:48;;;;;;;;;;;;;;;-144.99;51.13;52148.47;4990088;28;19954;-74
2022/07/09 11:07:19;;;;;;;;;;;;;;;-144.99;50.04;52174.97;4952653;28;19935;-74
2022/07/09 11:09:46;;;;;;;;;;;;;;;-144.99;48.87;52097.53;4981814;28;20015;-74
2022/07/09 11:12:15;;;;;;;;;;;;;;;-144.99;48.41;52150.53;4965727;28;19990;-75
2022/07/09 11:14:45;;;;;;;;;;;;;;;-144.99;48.49;52158.66;4950350;28;19937;-75
2022/07/09 11:17:14;;;;;;;;;;;;;;;-144.99;49.28;52142.38;4953268;28;20022;-73
2022/07/09 11:19:41;;;;;;;;;;;;;;;-144.99;48.37;52162.75;4968596;28;19968;-74
2022/07/09 11:22:07;;;;;;;;;;;;;;;-144.99;49.13;52195.34;4952305;28;19937;-72
2022/07/09 11:24:34;;;;;;;;;;;;;;;-144.99;48.80;52142.38;4987931;28;19929;-74
2022/07/09 11:27:02;;;;;;;;;;;;;;;-144.99;48.22;52203.50;4935948;28;20020;-75
2022/07/09 11:29:28;;;;;;;;;;;;;;;-144.99;48.11;52124.03;4945884;28;19941;-73
2022/07/09 11:31:56;;;;;;;;;;;;;;;-144.99;47.72;52164.78;4950819;28;20017;-74
2022/07/09 11:34:23;;;;;;;;;;;;;;;-144.99;47.45;52183.13;4966892;28;19930;-74
2022/07/09 11:36:51;;;;;;;;;;;;;;;-144.99;46.77;52201.47;4950309;28;19949;-74
2022/07/09 11:39:24;;;;;;;;;;;;;;;-144.99;47.24;52183.13;4990546;28;19929;-75
2022/07/09 11:41:51;;;;;;;;;;;;;;;-144.99;47.22;52113.84;4961968;28;20419;-74
2022/07/09 11:44:22;;;;;;;;;;;;;;;-144.99;46.91;52113.84;4966335;28;20006;-73
2022/07/09 11:47:02;;;;;;;;;;;;;;;-144.99;46.30;52166.81;4949525;28;20318;-73
2022/07/09 11:49:32;;;;;;;;;;;;;;;-144.99;46.52;52109.75;4998214;28;19928;-74
2022/07/09 11:51:59;;;;;;;;;;;;;;;-144.99;46.66;52166.81;4989857;28;20025;-74
2022/07/09 11:54:26;;;;;;;;;;;;;;;-144.99;46.53;52101.59;4992265;28;20006;-75
2022/07/09 11:56:53;;;;;;;;;;;;;;;-144.99;45.82;52069.00;4950553;28;20017;-74
2022/07/09 11:59:26;;;;;;;;;;;;;;;-144.99;45.49;52056.78;4983882;28;20493;-73
2022/07/09 12:01:52;;;;;;;;;;;;;;;-144.99;44.67;52105.69;4998375;28;20010;-74
2022/07/09 12:04:20;;;;;;;;;;;;;;;-144.99;43.88;52085.31;4952347;28;20025;-74
2022/07/09 12:06:50;;;;;;;;;;;;;;;-144.99;43.07;52062.88;4951642;28;19930;-73
2022/07/09 12:09:27;;;;;;;;;;;;;;;-144.99;43.82;52134.22;4953629;28;20005;-75
2022/07/09 12:11:54;;;;;;;;;;;;;;;-144.99;44.62;52093.44;4951349;28;19984;-75
2022/07/09 12:14:20;;;;;;;;;;;;;;;-144.99;43.78;52174.97;4950990;28;20025;-75
2022/07/09 12:16:46;;;;;;;;;;;;;;;-144.99;43.91;52126.06;5040634;23;19925;-75
2022/07/09 12:19:13;;;;;;;;;;;;;;;-144.99;44.06;52093.44;5049590;28;20011;-76
2022/07/09 12:21:41;;;;;;;;;;;;;;;-144.99;43.13;52056.78;5052354;28;19932;-75